• Join FlightAware (Why Join?)
  • Login
  • US Flag 
05:21PM EST


 

Airport Tracker/Info


-or-


 

Live Flight TrackerFlight Track Log ✈ JBU2783 ✈ 07-Jun-2014 ✈ KBOS - KRDU

Flight Track Log - Related Links

Times and Time Zones

All times are in EDT time to prevent confusion due to time zone crossing. See the JBU2783 flight status page for this flight to view local times or setup timezone preferences in your user account.

Time Position Orientation Groundspeed Altitude Reporting Facility
EDT Latitude Longitude Course Direction KTS MPH feet Rate Location/Type
04:13PM 42.3667 -70.9833 198° South 168 193 600  Level KA90
04:14PM 42.3667 -70.9167 90° East 197 227 1,700 2,092 Climbing KA90
04:15PM 42.3833 -70.8333 75° East 241 277 4,400 2,922 Climbing KA90
04:16PM 42.3248 -70.6999 164° South  Level FlightAware Approximate
04:16PM 42.3833 -70.7500 90° East 293 337 7,300  Level KA90
04:17PM 42.2154 -70.6410 160° South  Level FlightAware Approximate
04:17PM 42.3419 -70.7100 144° Southeast 279 321 9,200  Level Boston Center
04:18PM 42.1042 -70.6146 200° South  Level FlightAware Approximate
04:18PM 42.2603 -70.6686 159° South 315 362 11,500  Level Boston Center
04:19PM 41.9912 -70.6633 198° South  Level FlightAware Approximate
04:19PM 42.1672 -70.6267 162° South 348 400 13,500  Level Boston Center
04:20PM 42.0611 -70.6481 189° South 389 448 15,400 1,951 Climbing Boston Center
04:21PM 41.9542 -70.6964 199° South 407 468 17,500 2,213 Climbing Boston Center
04:22PM 41.8425 -70.7456 198° South 420 483 19,900 2,066 Climbing Boston Center
04:23PM 41.7392 -70.8222 209° Southwest 424 488 21,700 1,756 Climbing Boston Center
04:24PM 41.6336 -70.9539 223° Southwest 433 498 23,500 1,707 Climbing Boston Center
04:25PM 41.5483 -71.0708 226° Southwest 438 504 25,200 1,426 Climbing Boston Center
04:26PM 41.4600 -71.1883 225° Southwest 443 510 26,400 1,122 Climbing Boston Center
04:27PM 41.3625 -71.3178 225° Southwest 459 528 27,500 1,024 Climbing Boston Center
04:28PM 41.2697 -71.4414 225° Southwest 469 540 28,500 934 Climbing Boston Center
04:29PM 41.1778 -71.5675 226° Southwest 473 544 29,400 976 Climbing Boston Center
04:30PM 41.1169 -71.7250 243° Southwest 482 555 30,500 976 Climbing Boston Center
04:31PM 41.0306 -71.8594 230° Southwest 485 558 31,400 1,377 Climbing Boston Center
04:32PM 40.9425 -71.9758 225° Southwest 476 548 33,300 1,268 Climbing Boston Center
04:33PM 40.8531 -72.0936 225° Southwest 458 527 34,000 976 Climbing Boston Center
04:34PM 40.7442 -72.2361 225° Southwest 459 528 35,300 1,475 Climbing Boston Center
04:35PM 40.6703 -72.3314 224° Southwest 443 510 37,000 1,317 Climbing Boston Center
04:36PM 40.5894 -72.4356 224° Southwest 412 474 38,000 488 Climbing Boston Center
04:37PM 40.4917 -72.5636 225° Southwest 414 476 38,000  Level Boston Center
04:38PM 40.4064 -72.6733 224° Southwest 426 490 38,000  Level Boston Center
04:39PM 40.3194 -72.7864 225° Southwest 435 501 38,000  Level Boston Center
04:40PM 40.2297 -72.9000 224° Southwest 445 512 38,000  Level Boston Center
04:41PM 40.1375 -73.0186 225° Southwest 445 512 38,000  Level Boston Center
04:42PM 40.0469 -73.1328 224° Southwest 450 518 38,000  Level Boston Center
04:43PM 39.9575 -73.2469 224° Southwest 450 518 38,000  Level Boston Center
04:44PM 39.8697 -73.3550 223° Southwest 451 519 38,000  Level Boston Center
04:45PM 39.7800 -73.4700 225° Southwest 451 519 38,000  Level Boston Center
04:46PM 39.6886 -73.5836 224° Southwest 452 520 38,000  Level Boston Center
04:47PM 39.5981 -73.6972 224° Southwest 452 520 38,000  Level Boston Center
04:48PM 39.4869 -73.8331 223° Southwest 453 521 38,000  Level Boston Center
04:49PM 39.3953 -73.9467 224° Southwest 454 522 38,000  Level Boston Center
04:50PM 39.3025 -74.0608 224° Southwest 455 524 38,000  Level Boston Center
04:52PM 39.2097 -74.1742 223° Southwest 455 524 38,000  Level Boston Center
04:53PM 39.1183 -74.2875 224° Southwest 455 524 38,000  Level Boston Center
04:54PM 39.0272 -74.3967 223° Southwest 453 521 38,000 -977 Level Boston Center
04:55PM 38.9169 -74.5325 224° Southwest 458 527 35,900 -2,093 Descending Washington Center
04:56PM 38.8281 -74.6403 223° Southwest 453 521 33,500 -1,934 Descending Washington Center
04:57PM 38.7497 -74.7344 223° Southwest 446 513 32,000 -763 Descending Washington Center
04:58PM 38.6544 -74.8367 220° Southwest 441 507 32,000  Level Washington Center
04:59PM 38.5611 -74.9411 221° Southwest 447 514 32,000  Level Washington Center
05:00PM 38.4658 -75.0375 218° Southwest 447 514 32,000  Level Washington Center
05:01PM 38.3725 -75.1414 221° Southwest 452 520 32,000 -50 Level Washington Center
05:02PM 38.2811 -75.2611 226° Southwest 446 513 31,900 -496 Descending Washington Center
05:03PM 38.1936 -75.3697 224° Southwest 440 506 31,000 -966 Descending Washington Center
05:04PM 38.1064 -75.4731 223° Southwest 440 506 30,000 -504 Descending Washington Center
05:05PM 38.0167 -75.5892 226° Southwest 445 512 30,000  Level Washington Center
05:06PM 37.9269 -75.6997 224° Southwest 450 518 30,000  Level Washington Center
05:07PM 37.8350 -75.8100 223° Southwest 456 525 30,000  Level Washington Center
05:08PM 37.7453 -75.9200 224° Southwest 462 532 30,000  Level Washington Center
05:09PM 37.6553 -76.0297 224° Southwest 462 532 30,000  Level Washington Center
05:10PM 37.5608 -76.1394 223° Southwest 462 532 30,000 -252 Level Washington Center
05:11PM 37.4747 -76.2356 222° Southwest 457 526 29,500 -1,450 Descending Washington Center
05:12PM 37.3867 -76.3472 225° Southwest 457 526 27,100 -2,400 Descending Washington Center
05:13PM 37.2961 -76.4508 222° Southwest 452 520 24,700 -1,576 Descending Washington Center
05:14PM 37.2183 -76.5594 228° Southwest 439 505 24,000 -639 Descending Washington Center
05:15PM 37.1442 -76.6783 232° Southwest 434 499 23,400 -492 Descending Washington Center
05:16PM 37.0681 -76.7919 230° Southwest 434 499 23,000 -203 Descending Washington Center
05:17PM 36.9939 -76.9103 232° Southwest 434 499 23,000  Level Washington Center
05:18PM 36.9217 -77.0208 231° Southwest 434 499 23,000  Level Washington Center
05:19PM 36.8450 -77.1389 231° Southwest 434 499 23,000 -101 Level Washington Center
05:20PM 36.7725 -77.2542 232° Southwest 434 499 22,800 -857 Descending Washington Center
05:21PM 36.6981 -77.3639 230° Southwest 434 499 21,300 -1,488 Descending Washington Center
05:22PM 36.6294 -77.4736 232° Southwest 429 494 19,800 -1,537 Descending Washington Center
05:23PM 36.5589 -77.5806 231° Southwest 419 482 18,200 -1,513 Descending Washington Center
05:24PM 36.4883 -77.6844 230° Southwest 408 470 16,800 -1,412 Descending Washington Center
05:25PM 36.4197 -77.7858 230° Southwest 408 470 15,400 -1,426 Descending Washington Center
05:26PM 36.3572 -77.8953 235° Southwest 397 457 13,900 -1,592 Descending Washington Center
05:26PM 36.2994 -77.9708 227° Southwest 380 437 12,800 -1,424 Descending Washington Center
05:27PM 36.2906 -77.9964 247° West 390 449 12,500 -1,171 Descending Washington Center
05:28PM 36.2261 -78.0869 229° Southwest 377 434 11,200 -1,371 Descending Washington Center
05:28PM 36.1786 -78.1575 230° Southwest 305 351 10,100 -1,200 Descending Washington Center
05:29PM 36.1658 -78.1778 232° Southwest 332 382 10,000 -98 Descending Washington Center
05:29PM 36.1331 -78.2461 239° Southwest 302 348 10,000  Level Washington Center
05:30PM 36.1264 -78.2586 237° Southwest 311 358 10,000  Level Washington Center
05:30PM 36.0936 -78.3269 239° Southwest 331 381 10,000  Level Washington Center
05:31PM 36.0739 -78.3675 239° Southwest 324 373 10,000  Level Washington Center
05:31PM 36.0453 -78.4256 239° Southwest 336 387 10,000 100 Level Washington Center
05:32PM 36.0297 -78.4633 243° Southwest 331 381 10,100  Climbing Washington Center
05:32PM 36.0058 -78.5036 234° Southwest 292 336 10,000  Descending Washington Center
05:33PM 35.9842 -78.5439 236° Southwest 317 365 10,100 -545 Climbing Washington Center
05:33PM 35.9542 -78.5711 216° Southwest 287 330 9,500 -1,672 Descending Washington Center
05:34PM 35.9219 -78.6083 223° Southwest 304 350 8,400 -1,791 Descending Washington Center
05:34PM 35.8878 -78.6403 217° Southwest 289 333 7,500 -1,759 Descending Washington Center
05:35PM 35.8600 -78.6675 218° Southwest 292 336 6,700 -1,612 Descending Washington Center
05:35PM 35.8236 -78.7019 218° Southwest 266 306 5,700 -1,548 Descending Washington Center
05:36PM 35.7761 -78.7589 224° Southwest 251 289 4,300 -1,475 Descending Washington Center
05:37PM 35.7614 -78.8403 257° West 209 241 2,700 -1,030 Descending Washington Center
05:38PM 35.8064 -78.8806 324° Northwest 168 193 2,000 -656 Descending Washington Center
05:39PM 35.8383 -78.8486 39° Northeast 136 157 1,300 -698 Descending Washington Center
05:41PM 35.8667 -78.8114 47° Northeast 128 147 500 -716 Descending Washington Center